Time;durP1;ratioP1;P1;durP2;ratioP2;P2;SDS_P1;SDS_P2;PMS_P1;PMS_P2;Temp;Humidity;BMP_temperature;BMP_pressure;BME280_temperature;BME280_humidity;BME280_pressure;Samples;Min_cycle;Max_cycle;Signal;HPM_P1;HPM_P2
2021/05/02 00:00:15;;;;;;;16.70;12.73;;;;;;;;;;5015517;28;20207;-59
2021/05/02 00:02:41;;;;;;;16.57;13.10;;;;;;;;;;5015378;28;20715;-60
2021/05/02 00:05:09;;;;;;;17.30;12.63;;;;;;;;;;5015293;28;20303;-55
2021/05/02 00:07:36;;;;;;;19.37;14.67;;;;;;;;;;5015630;28;20211;-59
2021/05/02 00:10:04;;;;;;;19.53;14.53;;;;;;;;;;5015179;28;21124;-59
2021/05/02 00:12:30;;;;;;;22.03;16.17;;;;;;;;;;5015148;28;20913;-59
2021/05/02 00:14:57;;;;;;;20.23;14.73;;;;;;;;;;5015406;28;20450;-58
2021/05/02 00:17:24;;;;;;;18.83;15.23;;;;;;;;;;5015285;28;20450;-60
2021/05/02 00:19:51;;;;;;;22.03;15.13;;;;;;;;;;5015398;28;20458;-59
2021/05/02 00:22:18;;;;;;;21.27;15.17;;;;;;;;;;5015228;28;20482;-57
2021/05/02 00:24:45;;;;;;;22.10;14.63;;;;;;;;;;5015211;28;20453;-59
2021/05/02 00:27:12;;;;;;;20.97;14.87;;;;;;;;;;5015239;28;20214;-59
2021/05/02 00:29:41;;;;;;;21.37;16.03;;;;;;;;;;5015304;28;20215;-60
2021/05/02 00:32:08;;;;;;;23.23;16.50;;;;;;;;;;5014682;28;20525;-60
2021/05/02 00:34:35;;;;;;;25.80;17.73;;;;;;;;;;5015153;28;20452;-60
2021/05/02 00:37:02;;;;;;;23.33;17.03;;;;;;;;;;5015133;28;20449;-57
2021/05/02 00:39:28;;;;;;;26.63;18.50;;;;;;;;;;5015046;28;20449;-59
2021/05/02 00:41:57;;;;;;;24.33;18.20;;;;;;;;;;5014648;28;20466;-56
2021/05/02 00:44:26;;;;;;;25.97;17.93;;;;;;;;;;5014917;28;20467;-57
2021/05/02 00:46:54;;;;;;;30.27;18.70;;;;;;;;;;5014581;28;20810;-59
2021/05/02 00:49:27;;;;;;;25.77;17.90;;;;;;;;;;5014818;28;20540;-59
2021/05/02 00:51:57;;;;;;;27.83;18.87;;;;;;;;;;5014370;28;20521;-59
2021/05/02 00:54:33;;;;;;;29.87;19.60;;;;;;;;;;5014542;28;20454;-58
2021/05/02 00:57:01;;;;;;;26.80;19.43;;;;;;;;;;5014475;28;20461;-58
2021/05/02 00:59:39;;;;;;;26.97;19.57;;;;;;;;;;5014485;28;20470;-59
2021/05/02 01:02:05;;;;;;;24.60;18.07;;;;;;;;;;5014556;28;20462;-56
2021/05/02 01:04:34;;;;;;;29.30;21.00;;;;;;;;;;5014204;28;20446;-56
2021/05/02 01:07:02;;;;;;;28.63;18.67;;;;;;;;;;5013490;28;20489;-55
2021/05/02 01:09:29;;;;;;;28.40;18.83;;;;;;;;;;5014015;28;20457;-60
2021/05/02 01:11:57;;;;;;;27.87;19.30;;;;;;;;;;5014045;28;20498;-59
2021/05/02 01:14:25;;;;;;;31.43;21.73;;;;;;;;;;5014160;28;20450;-55
2021/05/02 01:16:55;;;;;;;28.77;19.90;;;;;;;;;;5014242;28;20456;-60
2021/05/02 01:19:21;;;;;;;26.80;19.57;;;;;;;;;;5014340;28;20865;-56
2021/05/02 01:21:50;;;;;;;28.33;18.67;;;;;;;;;;5013556;28;20466;-58
2021/05/02 01:24:17;;;;;;;28.50;19.97;;;;;;;;;;5013970;28;20481;-56
2021/05/02 01:26:45;;;;;;;26.83;19.27;;;;;;;;;;5015958;28;20453;-58
2021/05/02 01:29:12;;;;;;;26.10;20.10;;;;;;;;;;5015743;28;20454;-59
2021/05/02 01:31:39;;;;;;;29.80;20.90;;;;;;;;;;5014073;28;20826;-57
2021/05/02 01:34:06;;;;;;;28.73;19.30;;;;;;;;;;5014082;28;20454;-56
2021/05/02 01:36:32;;;;;;;28.57;19.77;;;;;;;;;;5013568;28;20465;-59
2021/05/02 01:38:59;;;;;;;26.90;19.73;;;;;;;;;;5013711;28;20450;-60
2021/05/02 01:41:27;;;;;;;27.37;19.90;;;;;;;;;;5015032;28;20489;-60
2021/05/02 01:43:53;;;;;;;28.87;20.10;;;;;;;;;;5015756;28;20499;-59
2021/05/02 01:46:23;;;;;;;30.93;20.80;;;;;;;;;;5015090;28;20852;-59
2021/05/02 01:48:50;;;;;;;32.77;21.47;;;;;;;;;;5013550;28;20457;-60
2021/05/02 01:51:19;;;;;;;31.50;21.80;;;;;;;;;;5013271;28;20454;-58
2021/05/02 01:53:46;;;;;;;31.33;21.07;;;;;;;;;;5013444;28;21005;-59
2021/05/02 01:56:14;;;;;;;29.57;19.23;;;;;;;;;;5013641;28;20450;-60
2021/05/02 01:58:42;;;;;;;28.80;20.10;;;;;;;;;;5013512;28;20495;-57
2021/05/02 02:01:11;;;;;;;26.67;20.10;;;;;;;;;;5013368;28;20803;-60
2021/05/02 02:03:37;;;;;;;26.20;18.13;;;;;;;;;;5013169;28;20470;-59
2021/05/02 02:06:04;;;;;;;29.33;21.20;;;;;;;;;;5013143;28;20456;-58
2021/05/02 02:08:30;;;;;;;27.17;19.17;;;;;;;;;;5013565;28;20454;-60
2021/05/02 02:10:57;;;;;;;27.17;19.77;;;;;;;;;;5013083;28;20449;-57
2021/05/02 02:13:24;;;;;;;25.97;17.97;;;;;;;;;;5012909;28;20497;-60
2021/05/02 02:15:51;;;;;;;28.00;19.20;;;;;;;;;;5013060;28;20454;-59
2021/05/02 02:18:19;;;;;;;25.47;19.03;;;;;;;;;;5013059;28;20454;-60
2021/05/02 02:20:46;;;;;;;32.37;20.53;;;;;;;;;;5012941;28;20512;-60
2021/05/02 02:23:16;;;;;;;28.70;21.20;;;;;;;;;;5013168;28;20481;-56
2021/05/02 02:25:43;;;;;;;25.40;19.27;;;;;;;;;;5012959;28;20548;-60
2021/05/02 02:28:11;;;;;;;32.80;20.50;;;;;;;;;;5012820;28;20450;-60
2021/05/02 02:30:38;;;;;;;28.23;19.17;;;;;;;;;;5012704;28;20454;-59
2021/05/02 02:33:07;;;;;;;28.37;19.83;;;;;;;;;;5012564;28;20482;-59
2021/05/02 02:35:35;;;;;;;28.07;19.37;;;;;;;;;;5012977;28;20504;-58
2021/05/02 02:38:05;;;;;;;26.23;18.57;;;;;;;;;;5012630;28;21017;-59
2021/05/02 02:40:35;;;;;;;27.93;19.93;;;;;;;;;;5012573;28;20450;-58
2021/05/02 02:43:03;;;;;;;27.10;19.27;;;;;;;;;;5012423;28;20473;-57
2021/05/02 02:45:33;;;;;;;25.87;18.03;;;;;;;;;;5012292;28;20445;-58
2021/05/02 02:48:01;;;;;;;26.27;18.30;;;;;;;;;;5012505;28;20450;-59
2021/05/02 02:50:30;;;;;;;25.93;16.77;;;;;;;;;;5012400;28;20504;-57
2021/05/02 02:52:57;;;;;;;23.27;16.03;;;;;;;;;;5012611;28;20481;-59
2021/05/02 02:55:25;;;;;;;23.27;17.07;;;;;;;;;;5012462;28;20527;-58
2021/05/02 02:57:55;;;;;;;23.43;17.23;;;;;;;;;;5012259;28;20446;-58
2021/05/02 03:00:22;;;;;;;26.67;16.30;;;;;;;;;;5012110;28;20449;-59
2021/05/02 03:02:50;;;;;;;20.73;15.43;;;;;;;;;;5012367;28;20864;-57
2021/05/02 03:05:19;;;;;;;25.37;15.23;;;;;;;;;;5012315;28;20454;-59
2021/05/02 03:07:48;;;;;;;22.47;16.37;;;;;;;;;;5012397;28;20485;-59
2021/05/02 03:10:15;;;;;;;27.87;16.00;;;;;;;;;;5012080;28;20520;-58
2021/05/02 03:12:42;;;;;;;24.03;15.93;;;;;;;;;;5011939;28;20497;-58
2021/05/02 03:15:09;;;;;;;23.93;15.53;;;;;;;;;;5012444;28;20450;-59
2021/05/02 03:17:36;;;;;;;24.20;15.63;;;;;;;;;;5012306;28;20446;-58
2021/05/02 03:20:06;;;;;;;22.40;14.47;;;;;;;;;;5012156;28;20483;-56
2021/05/02 03:22:35;;;;;;;19.90;14.50;;;;;;;;;;5012346;28;20466;-56
2021/05/02 03:25:05;;;;;;;21.70;14.60;;;;;;;;;;5012114;28;20450;-58
2021/05/02 03:27:35;;;;;;;19.67;13.23;;;;;;;;;;5012255;28;20446;-57
2021/05/02 03:30:06;;;;;;;21.33;13.57;;;;;;;;;;5014930;28;20446;-59
2021/05/02 03:32:34;;;;;;;16.83;13.10;;;;;;;;;;5015851;28;20489;-59
2021/05/02 03:35:01;;;;;;;20.93;12.77;;;;;;;;;;5016067;28;20454;-59
2021/05/02 03:37:31;;;;;;;19.20;11.77;;;;;;;;;;5016173;28;20849;-59
2021/05/02 03:39:58;;;;;;;18.97;12.23;;;;;;;;;;5016319;28;20446;-59
2021/05/02 03:42:26;;;;;;;17.00;11.23;;;;;;;;;;5016319;28;20488;-56
2021/05/02 03:44:53;;;;;;;16.67;11.20;;;;;;;;;;5015983;28;20886;-58
2021/05/02 03:47:20;;;;;;;13.80;10.00;;;;;;;;;;5015908;28;20873;-56
2021/05/02 03:49:47;;;;;;;13.63;10.13;;;;;;;;;;5015641;28;20454;-59
2021/05/02 03:52:13;;;;;;;14.87;8.60;;;;;;;;;;5015555;28;20492;-59
2021/05/02 03:54:40;;;;;;;18.77;10.40;;;;;;;;;;5015714;28;20888;-57
2021/05/02 03:57:07;;;;;;;19.27;10.13;;;;;;;;;;5015827;28;20507;-55
2021/05/02 03:59:34;;;;;;;16.30;11.63;;;;;;;;;;5015507;28;20449;-58
2021/05/02 04:02:01;;;;;;;17.73;12.90;;;;;;;;;;5015306;28;21016;-59
2021/05/02 04:04:29;;;;;;;20.07;12.63;;;;;;;;;;5015385;28;20457;-57
2021/05/02 04:06:58;;;;;;;23.37;14.97;;;;;;;;;;5015607;28;20489;-59
2021/05/02 04:09:24;;;;;;;21.53;14.27;;;;;;;;;;5015321;28;20961;-58
2021/05/02 04:11:51;;;;;;;19.30;13.33;;;;;;;;;;5015018;28;20489;-59
2021/05/02 04:14:18;;;;;;;23.73;15.90;;;;;;;;;;5015555;28;20835;-56
2021/05/02 04:16:45;;;;;;;24.47;15.17;;;;;;;;;;5015224;28;20453;-59
2021/05/02 04:19:12;;;;;;;20.40;13.60;;;;;;;;;;5015169;28;20453;-59
2021/05/02 04:21:39;;;;;;;21.63;15.77;;;;;;;;;;5015051;28;20445;-57
2021/05/02 04:24:06;;;;;;;25.50;15.27;;;;;;;;;;5015406;28;20453;-58
2021/05/02 04:26:33;;;;;;;23.10;14.87;;;;;;;;;;5015079;28;20453;-58
2021/05/02 04:28:59;;;;;;;22.97;15.60;;;;;;;;;;5015102;28;20853;-59
2021/05/02 04:31:26;;;;;;;21.00;14.93;;;;;;;;;;5014708;28;20457;-53
2021/05/02 04:33:53;;;;;;;24.30;14.20;;;;;;;;;;5014724;28;20899;-58
2021/05/02 04:36:20;;;;;;;19.20;13.03;;;;;;;;;;5015075;28;20860;-57
2021/05/02 04:38:46;;;;;;;19.03;13.20;;;;;;;;;;5014825;28;20504;-56
2021/05/02 04:41:13;;;;;;;18.20;12.77;;;;;;;;;;5014731;28;20505;-59
2021/05/02 04:43:39;;;;;;;18.00;12.70;;;;;;;;;;5014859;28;20509;-59
2021/05/02 04:46:06;;;;;;;15.07;12.03;;;;;;;;;;5014799;28;20450;-59
2021/05/02 04:48:32;;;;;;;18.10;12.83;;;;;;;;;;5014528;28;20449;-56
2021/05/02 04:51:00;;;;;;;22.07;13.53;;;;;;;;;;5014741;28;20545;-59
2021/05/02 04:53:26;;;;;;;20.00;13.50;;;;;;;;;;5014451;28;21020;-58
2021/05/02 04:55:53;;;;;;;18.13;12.80;;;;;;;;;;5014619;28;20445;-58
2021/05/02 04:58:19;;;;;;;19.37;12.20;;;;;;;;;;5014534;28;20457;-59
2021/05/02 05:00:46;;;;;;;20.20;13.23;;;;;;;;;;5014287;28;20472;-56
2021/05/02 05:03:12;;;;;;;20.50;13.20;;;;;;;;;;5014533;28;20462;-57
2021/05/02 05:05:39;;;;;;;19.83;13.00;;;;;;;;;;5014878;28;20453;-59
2021/05/02 05:08:07;;;;;;;22.67;12.63;;;;;;;;;;5014561;28;20961;-60
2021/05/02 05:10:33;;;;;;;17.30;12.27;;;;;;;;;;5014207;28;20457;-59
2021/05/02 05:13:00;;;;;;;19.27;12.37;;;;;;;;;;5014183;28;20493;-59
2021/05/02 05:15:26;;;;;;;19.10;11.50;;;;;;;;;;5014089;28;20457;-59
2021/05/02 05:17:53;;;;;;;19.23;12.10;;;;;;;;;;5014468;28;20453;-58
2021/05/02 05:20:19;;;;;;;21.03;12.47;;;;;;;;;;5014196;28;20461;-58
2021/05/02 05:22:46;;;;;;;20.47;12.67;;;;;;;;;;5014261;28;20481;-58
2021/05/02 05:25:13;;;;;;;17.63;12.20;;;;;;;;;;5014184;28;20454;-59
2021/05/02 05:27:40;;;;;;;18.73;12.33;;;;;;;;;;5013856;28;20450;-56
2021/05/02 05:30:09;;;;;;;17.07;11.40;;;;;;;;;;5013719;28;20446;-58
2021/05/02 05:32:35;;;;;;;19.37;12.00;;;;;;;;;;5013811;28;20497;-59
2021/05/02 05:35:02;;;;;;;20.07;12.03;;;;;;;;;;5014145;28;20545;-59
2021/05/02 05:37:29;;;;;;;16.13;11.50;;;;;;;;;;5014490;28;20449;-58
2021/05/02 05:39:55;;;;;;;17.43;11.00;;;;;;;;;;5014751;28;20477;-59
2021/05/02 05:42:23;;;;;;;19.13;11.13;;;;;;;;;;5014169;28;20462;-57
2021/05/02 05:44:49;;;;;;;18.33;10.00;;;;;;;;;;5013859;28;20457;-58
2021/05/02 05:47:16;;;;;;;15.50;10.23;;;;;;;;;;5014610;28;20462;-59
2021/05/02 05:49:42;;;;;;;16.00;9.70;;;;;;;;;;5014320;28;20811;-59
2021/05/02 05:52:09;;;;;;;17.90;9.13;;;;;;;;;;5014505;28;20547;-59
2021/05/02 05:54:35;;;;;;;13.90;9.47;;;;;;;;;;5014317;28;20454;-56
2021/05/02 05:57:02;;;;;;;16.53;9.60;;;;;;;;;;5013573;28;20529;-57
2021/05/02 05:59:29;;;;;;;17.17;9.33;;;;;;;;;;5014635;28;20454;-59
2021/05/02 06:01:56;;;;;;;14.57;9.77;;;;;;;;;;5014779;28;20510;-60
2021/05/02 06:04:23;;;;;;;18.17;10.30;;;;;;;;;;5014227;28;20821;-52
2021/05/02 06:06:50;;;;;;;14.43;10.23;;;;;;;;;;5013421;28;20446;-59
2021/05/02 06:09:16;;;;;;;17.70;10.40;;;;;;;;;;5013241;28;20965;-59
2021/05/02 06:11:45;;;;;;;14.73;10.53;;;;;;;;;;5012644;28;20449;-59
2021/05/02 06:14:11;;;;;;;18.80;10.50;;;;;;;;;;5014430;28;20486;-59
2021/05/02 06:16:39;;;;;;;15.77;9.87;;;;;;;;;;5014491;28;20458;-59
2021/05/02 06:19:05;;;;;;;16.73;9.50;;;;;;;;;;5016054;28;20480;-59
2021/05/02 06:21:32;;;;;;;13.67;9.50;;;;;;;;;;5013372;28;20827;-59
2021/05/02 06:23:58;;;;;;;13.60;9.37;;;;;;;;;;5012903;28;20950;-57
2021/05/02 06:26:25;;;;;;;15.13;9.20;;;;;;;;;;5012884;28;20450;-54
2021/05/02 06:28:52;;;;;;;11.80;8.57;;;;;;;;;;5013161;28;20450;-54
2021/05/02 06:31:18;;;;;;;10.73;8.10;;;;;;;;;;5012804;28;20950;-60
2021/05/02 06:33:46;;;;;;;16.63;8.67;;;;;;;;;;5012870;28;20494;-60
2021/05/02 06:36:12;;;;;;;17.87;8.33;;;;;;;;;;5012820;28;20453;-57
2021/05/02 06:38:39;;;;;;;11.80;7.30;;;;;;;;;;5012545;28;20453;-58
2021/05/02 06:41:05;;;;;;;11.73;7.63;;;;;;;;;;5012420;28;20454;-60
2021/05/02 06:43:32;;;;;;;12.63;8.37;;;;;;;;;;5012632;28;20466;-56
2021/05/02 06:45:58;;;;;;;17.83;8.20;;;;;;;;;;5012668;28;20203;-58
2021/05/02 06:48:25;;;;;;;12.83;8.13;;;;;;;;;;5012441;28;20230;-58
2021/05/02 06:50:52;;;;;;;12.57;8.03;;;;;;;;;;5012055;28;20818;-60
2021/05/02 06:53:19;;;;;;;12.57;6.80;;;;;;;;;;5012078;28;20233;-59
2021/05/02 06:55:45;;;;;;;13.83;7.27;;;;;;;;;;5012327;28;20974;-59
2021/05/02 06:58:12;;;;;;;11.60;7.43;;;;;;;;;;5012288;28;20578;-55
2021/05/02 07:00:39;;;;;;;11.30;6.40;;;;;;;;;;5011850;28;20211;-58
2021/05/02 07:03:06;;;;;;;13.10;6.80;;;;;;;;;;5009334;28;20594;-55
2021/05/02 07:05:32;;;;;;;7.73;5.70;;;;;;;;;;5012239;28;20208;-54
2021/05/02 07:08:00;;;;;;;8.77;6.03;;;;;;;;;;5011807;28;20712;-57
2021/05/02 07:10:26;;;;;;;13.43;6.33;;;;;;;;;;5012208;28;20205;-59
2021/05/02 07:12:53;;;;;;;8.57;5.53;;;;;;;;;;5011657;28;20249;-54
2021/05/02 07:15:19;;;;;;;9.07;5.13;;;;;;;;;;5012142;28;20209;-55
2021/05/02 07:17:46;;;;;;;7.83;5.30;;;;;;;;;;5012143;28;20213;-53
2021/05/02 07:20:15;;;;;;;10.00;4.23;;;;;;;;;;5011005;28;20293;-55
2021/05/02 07:22:43;;;;;;;9.00;4.30;;;;;;;;;;5011800;28;20229;-58
2021/05/02 07:25:11;;;;;;;7.57;4.13;;;;;;;;;;5012262;28;20214;-59
2021/05/02 07:27:38;;;;;;;7.50;3.67;;;;;;;;;;5012019;28;20252;-58
2021/05/02 07:30:05;;;;;;;7.17;3.93;;;;;;;;;;5011844;28;20209;-54
2021/05/02 07:32:31;;;;;;;6.83;3.90;;;;;;;;;;5011465;28;20235;-59
2021/05/02 07:34:58;;;;;;;6.20;3.30;;;;;;;;;;5011471;28;20207;-57
2021/05/02 07:37:24;;;;;;;5.70;3.00;;;;;;;;;;5008105;28;20215;-56
2021/05/02 07:39:51;;;;;;;4.47;3.20;;;;;;;;;;5011103;28;20206;-58
2021/05/02 07:42:18;;;;;;;5.97;3.30;;;;;;;;;;5011356;28;20233;-59
2021/05/02 07:44:45;;;;;;;4.90;2.90;;;;;;;;;;5011389;28;20207;-57
2021/05/02 07:47:11;;;;;;;8.47;2.90;;;;;;;;;;5011119;28;20210;-54
2021/05/02 07:49:38;;;;;;;8.90;4.93;;;;;;;;;;5011028;28;20611;-56
2021/05/02 07:52:04;;;;;;;5.80;2.70;;;;;;;;;;5011255;28;20234;-58
2021/05/02 07:54:31;;;;;;;6.03;3.30;;;;;;;;;;5011152;28;20730;-58
2021/05/02 07:56:58;;;;;;;5.40;2.80;;;;;;;;;;5011025;28;20302;-56
2021/05/02 07:59:25;;;;;;;8.03;3.00;;;;;;;;;;5010966;28;20625;-64
2021/05/02 08:01:52;;;;;;;7.87;2.40;;;;;;;;;;5011006;28;20261;-60
2021/05/02 08:04:18;;;;;;;5.53;2.47;;;;;;;;;;5011011;28;20199;-60
2021/05/02 08:06:45;;;;;;;6.90;2.57;;;;;;;;;;5011392;28;20218;-53
2021/05/02 08:09:11;;;;;;;4.70;2.40;;;;;;;;;;5010748;28;20211;-62
2021/05/02 08:11:38;;;;;;;4.47;2.93;;;;;;;;;;5010689;28;20260;-61
2021/05/02 08:14:05;;;;;;;5.67;2.20;;;;;;;;;;5010875;28;20234;-59
2021/05/02 08:16:33;;;;;;;7.70;2.93;;;;;;;;;;5014333;28;20687;-59
2021/05/02 08:19:01;;;;;;;4.00;2.40;;;;;;;;;;5014503;28;20218;-54
2021/05/02 08:21:28;;;;;;;6.43;2.50;;;;;;;;;;5014623;28;20222;-54
2021/05/02 08:23:54;;;;;;;7.17;2.63;;;;;;;;;;5015007;28;20207;-58
2021/05/02 08:26:21;;;;;;;5.33;2.40;;;;;;;;;;5014712;28;20207;-57
2021/05/02 08:28:47;;;;;;;4.17;2.13;;;;;;;;;;5014428;28;20207;-57
2021/05/02 08:31:14;;;;;;;4.67;2.40;;;;;;;;;;5014170;28;20211;-61
2021/05/02 08:33:41;;;;;;;6.27;2.73;;;;;;;;;;5014482;28;20246;-56
2021/05/02 08:36:08;;;;;;;5.83;2.53;;;;;;;;;;5014812;28;20205;-58
2021/05/02 08:38:35;;;;;;;8.03;2.73;;;;;;;;;;5014039;28;20220;-60
2021/05/02 08:41:02;;;;;;;8.13;2.53;;;;;;;;;;5014040;28;20214;-57
2021/05/02 08:43:29;;;;;;;5.20;2.53;;;;;;;;;;5013558;28;20289;-60
2021/05/02 08:45:55;;;;;;;6.67;2.40;;;;;;;;;;5014086;28;20211;-56
2021/05/02 08:48:22;;;;;;;4.67;2.60;;;;;;;;;;5014300;28;20211;-57
2021/05/02 08:50:50;;;;;;;5.83;2.77;;;;;;;;;;5025104;28;20257;-57
2021/05/02 08:53:16;;;;;;;5.90;2.43;;;;;;;;;;5034118;28;20246;-56
2021/05/02 08:55:43;;;;;;;5.50;3.03;;;;;;;;;;5033911;28;20215;-58
2021/05/02 08:58:14;;;;;;;6.47;3.17;;;;;;;;;;5033625;28;20251;-59
2021/05/02 09:00:41;;;;;;;4.80;4.07;;;;;;;;;;5033925;28;20191;-58
2021/05/02 09:03:08;;;;;;;5.63;3.27;;;;;;;;;;5033985;28;20222;-54
2021/05/02 09:05:42;;;;;;;5.50;3.17;;;;;;;;;;5034032;28;20205;-57
2021/05/02 09:08:09;;;;;;;5.03;3.00;;;;;;;;;;5033218;28;20906;-57
2021/05/02 09:10:36;;;;;;;7.77;3.00;;;;;;;;;;5033971;28;20209;-55
2021/05/02 09:13:05;;;;;;;9.63;3.00;;;;;;;;;;5034714;28;20234;-56
2021/05/02 09:15:33;;;;;;;5.67;3.40;;;;;;;;;;5038428;28;20245;-53
2021/05/02 09:18:03;;;;;;;5.87;3.10;;;;;;;;;;5038386;28;20206;-58
2021/05/02 09:20:48;;;;;;;6.70;3.03;;;;;;;;;;5038308;28;20268;-56
2021/05/02 09:23:18;;;;;;;4.73;2.97;;;;;;;;;;5033926;28;20304;-57
2021/05/02 09:25:45;;;;;;;3.57;2.23;;;;;;;;;;5033801;28;20284;-52
2021/05/02 09:28:11;;;;;;;7.20;2.80;;;;;;;;;;5035525;28;20280;-58
2021/05/02 09:30:38;;;;;;;4.43;2.73;;;;;;;;;;5040776;28;20268;-58
2021/05/02 09:33:05;;;;;;;6.57;2.43;;;;;;;;;;5038986;28;20230;-58
2021/05/02 09:35:34;;;;;;;5.83;2.80;;;;;;;;;;5033390;28;20203;-56
2021/05/02 09:38:08;;;;;;;5.47;2.90;;;;;;;;;;5032913;28;20213;-57
2021/05/02 09:40:45;;;;;;;6.10;3.00;;;;;;;;;;5033276;28;20671;-56
2021/05/02 09:43:13;;;;;;;5.00;2.73;;;;;;;;;;5033386;28;20781;-55
2021/05/02 09:45:39;;;;;;;5.70;2.30;;;;;;;;;;5033148;28;20218;-58
2021/05/02 09:48:06;;;;;;;3.70;1.90;;;;;;;;;;5032407;28;20689;-54
2021/05/02 09:50:35;;;;;;;4.90;2.77;;;;;;;;;;5032799;28;20626;-55
2021/05/02 09:53:02;;;;;;;4.00;2.53;;;;;;;;;;5032845;28;20321;-52
2021/05/02 09:55:31;;;;;;;3.93;2.50;;;;;;;;;;5032833;28;20278;-56
2021/05/02 09:58:05;;;;;;;4.47;2.90;;;;;;;;;;5032299;28;20214;-57
2021/05/02 10:00:33;;;;;;;5.17;2.50;;;;;;;;;;5032494;28;20252;-53
2021/05/02 10:03:00;;;;;;;5.17;2.50;;;;;;;;;;5033320;28;20227;-58
2021/05/02 10:05:27;;;;;;;7.57;2.97;;;;;;;;;;5033479;28;20233;-58
2021/05/02 10:07:54;;;;;;;6.17;3.00;;;;;;;;;;5032991;28;20780;-58
2021/05/02 10:10:21;;;;;;;5.27;2.97;;;;;;;;;;5033251;28;20237;-57
2021/05/02 10:12:49;;;;;;;6.20;2.73;;;;;;;;;;5033214;28;20266;-58
2021/05/02 10:15:16;;;;;;;6.43;2.70;;;;;;;;;;5033495;28;20213;-58
2021/05/02 10:17:43;;;;;;;4.30;2.97;;;;;;;;;;5032512;28;20210;-57
2021/05/02 10:20:13;;;;;;;4.17;2.60;;;;;;;;;;5032692;28;20201;-59
2021/05/02 10:22:40;;;;;;;3.47;2.37;;;;;;;;;;5032374;28;20229;-58
2021/05/02 10:25:07;;;;;;;5.40;2.50;;;;;;;;;;5032774;28;20218;-64
2021/05/02 10:27:40;;;;;;;5.63;2.30;;;;;;;;;;5033937;28;20221;-59
2021/05/02 10:30:07;;;;;;;2.90;1.93;;;;;;;;;;5032227;28;20580;-59
2021/05/02 10:32:35;;;;;;;2.47;2.00;;;;;;;;;;5032479;28;20290;-64
2021/05/02 10:35:10;;;;;;;3.83;2.27;;;;;;;;;;5032655;28;20629;-62
2021/05/02 10:37:38;;;;;;;3.10;2.10;;;;;;;;;;5032876;28;20291;-60
2021/05/02 10:40:07;;;;;;;5.27;2.23;;;;;;;;;;5032048;28;20202;-64
2021/05/02 10:42:38;;;;;;;5.57;2.00;;;;;;;;;;5032444;28;20572;-62
2021/05/02 10:45:25;;;;;;;3.53;1.80;;;;;;;;;;5032912;28;20355;-61
2021/05/02 10:47:54;;;;;;;3.00;1.40;;;;;;;;;;5037077;28;20210;-59
2021/05/02 10:50:27;;;;;;;2.93;2.00;;;;;;;;;;5037227;28;20207;-59
2021/05/02 10:53:03;;;;;;;3.90;1.70;;;;;;;;;;5035727;28;20230;-61
2021/05/02 10:55:46;;;;;;;2.63;1.70;;;;;;;;;;5032952;28;20585;-56
2021/05/02 10:58:19;;;;;;;2.80;1.60;;;;;;;;;;5031421;28;20210;-56
2021/05/02 11:00:49;;;;;;;9.67;3.10;;;;;;;;;;5031962;28;20276;-61
2021/05/02 11:03:34;;;;;;;3.60;2.00;;;;;;;;;;5031713;28;20226;-62
2021/05/02 11:06:02;;;;;;;10.37;2.97;;;;;;;;;;5032294;28;20206;-61
2021/05/02 11:08:43;;;;;;;9.37;3.10;;;;;;;;;;5032194;28;20202;-61
2021/05/02 11:11:35;;;;;;;5.47;2.43;;;;;;;;;;5031803;28;20210;-64
2021/05/02 11:14:21;;;;;;;5.30;2.17;;;;;;;;;;5031388;28;20219;-63
2021/05/02 11:16:49;;;;;;;6.60;2.30;;;;;;;;;;5017499;28;20208;-64
2021/05/02 11:19:32;;;;;;;5.30;2.13;;;;;;;;;;5003337;28;20210;-65
2021/05/02 11:22:09;;;;;;;3.57;1.90;;;;;;;;;;5011569;28;20259;-64
2021/05/02 11:24:51;;;;;;;2.50;1.87;;;;;;;;;;5011693;28;20655;-66
2021/05/02 11:27:21;;;;;;;2.33;1.83;;;;;;;;;;5011655;28;20216;-64
2021/05/02 11:30:04;;;;;;;4.57;1.60;;;;;;;;;;5011294;28;20215;-63
2021/05/02 11:32:36;;;;;;;6.17;1.60;;;;;;;;;;5011043;28;20648;-62
2021/05/02 11:35:04;;;;;;;3.93;1.83;;;;;;;;;;5011771;28;20212;-63
2021/05/02 11:37:42;;;;;;;3.30;1.70;;;;;;;;;;5011442;28;20207;-64
2021/05/02 11:40:35;;;;;;;3.50;1.70;;;;;;;;;;5011673;28;20242;-63
2021/05/02 11:43:02;;;;;;;4.67;1.87;;;;;;;;;;5011404;28;20225;-63
2021/05/02 11:45:30;;;;;;;3.80;1.97;;;;;;;;;;5011868;28;20618;-62
2021/05/02 11:47:57;;;;;;;4.70;1.57;;;;;;;;;;5011104;28;20240;-63
2021/05/02 11:50:24;;;;;;;2.40;1.40;;;;;;;;;;5013212;28;20294;-63
2021/05/02 11:52:52;;;;;;;1.73;1.40;;;;;;;;;;5015145;28;20254;-64
2021/05/02 11:55:26;;;;;;;1.80;1.60;;;;;;;;;;5015378;28;20207;-63
2021/05/02 11:57:52;;;;;;;2.97;1.57;;;;;;;;;;5015030;28;20308;-64
2021/05/02 12:00:28;;;;;;;3.17;1.90;;;;;;;;;;5014885;28;20212;-64
2021/05/02 12:02:55;;;;;;;7.20;2.00;;;;;;;;;;5015830;28;20276;-64
2021/05/02 12:05:22;;;;;;;3.57;1.90;;;;;;;;;;5015298;28;20215;-63
2021/05/02 12:07:48;;;;;;;3.80;1.97;;;;;;;;;;5014576;28;20275;-65
2021/05/02 12:10:20;;;;;;;5.97;1.90;;;;;;;;;;5014686;28;20207;-65
2021/05/02 12:12:46;;;;;;;2.43;1.50;;;;;;;;;;5015052;28;20244;-65
2021/05/02 12:15:13;;;;;;;2.80;1.73;;;;;;;;;;5015361;28;20203;-65
2021/05/02 12:17:51;;;;;;;2.63;1.63;;;;;;;;;;5014602;28;20211;-61
2021/05/02 12:20:21;;;;;;;3.63;1.80;;;;;;;;;;5014612;28;20211;-61
2021/05/02 12:22:49;;;;;;;3.47;1.80;;;;;;;;;;5015715;28;20224;-63
2021/05/02 12:25:16;;;;;;;2.77;1.60;;;;;;;;;;5015334;28;20208;-61
2021/05/02 12:27:55;;;;;;;3.83;1.60;;;;;;;;;;5014420;28;20213;-61
2021/05/02 12:30:22;;;;;;;3.77;1.70;;;;;;;;;;5014486;28;20212;-61
2021/05/02 12:32:48;;;;;;;7.60;2.07;;;;;;;;;;5014755;28;20292;-58
2021/05/02 12:35:15;;;;;;;3.37;1.77;;;;;;;;;;5014967;28;20532;-60
2021/05/02 12:37:41;;;;;;;3.27;1.63;;;;;;;;;;5014568;28;20212;-61
2021/05/02 12:40:09;;;;;;;2.57;1.40;;;;;;;;;;5014199;28;20214;-62
2021/05/02 12:42:36;;;;;;;10.17;3.40;;;;;;;;;;5014887;28;20236;-60
2021/05/02 12:45:04;;;;;;;3.17;1.60;;;;;;;;;;5014733;28;20212;-60
2021/05/02 12:47:31;;;;;;;2.00;1.30;;;;;;;;;;5014686;28;20211;-59
2021/05/02 12:50:00;;;;;;;1.37;1.27;;;;;;;;;;5016000;28;20275;-60
2021/05/02 12:52:29;;;;;;;3.43;1.77;;;;;;;;;;5017243;28;20239;-63
2021/05/02 12:54:55;;;;;;;3.37;1.60;;;;;;;;;;5014596;28;20208;-61
2021/05/02 12:57:26;;;;;;;5.33;1.90;;;;;;;;;;5014038;28;20235;-64
2021/05/02 12:59:55;;;;;;;4.43;1.50;;;;;;;;;;5014301;28;20681;-60
2021/05/02 13:02:28;;;;;;;3.93;1.40;;;;;;;;;;5016277;28;20223;-60
2021/05/02 13:04:55;;;;;;;3.33;1.90;;;;;;;;;;5015613;28;20230;-59
2021/05/02 13:07:32;;;;;;;2.90;1.60;;;;;;;;;;5030166;28;20229;-64
2021/05/02 13:09:59;;;;;;;5.10;2.00;;;;;;;;;;5033153;28;20214;-60
2021/05/02 13:12:26;;;;;;;1.87;1.63;;;;;;;;;;5032575;28;20348;-62
2021/05/02 13:15:02;;;;;;;3.43;1.70;;;;;;;;;;5033476;28;20226;-63
2021/05/02 13:17:29;;;;;;;4.80;2.13;;;;;;;;;;5032944;28;20213;-60
2021/05/02 13:19:58;;;;;;;4.90;2.10;;;;;;;;;;5023671;28;20207;-62
2021/05/02 13:22:25;;;;;;;3.30;1.90;;;;;;;;;;4998171;28;20255;-62
2021/05/02 13:24:59;;;;;;;2.00;1.70;;;;;;;;;;5000021;28;20281;-63
2021/05/02 13:27:33;;;;;;;10.03;2.40;;;;;;;;;;5012636;28;20210;-64
2021/05/02 13:29:59;;;;;;;4.17;2.10;;;;;;;;;;5012833;28;20211;-61
2021/05/02 13:32:26;;;;;;;4.23;2.40;;;;;;;;;;5012498;28;20227;-53
2021/05/02 13:34:53;;;;;;;4.73;2.57;;;;;;;;;;5013210;28;20227;-58
2021/05/02 13:37:20;;;;;;;4.50;2.83;;;;;;;;;;5012857;28;20259;-60
2021/05/02 13:39:46;;;;;;;3.23;2.40;;;;;;;;;;5012815;28;20211;-58
2021/05/02 13:42:13;;;;;;;5.53;2.40;;;;;;;;;;5013122;28;20223;-59
2021/05/02 13:44:40;;;;;;;3.17;2.10;;;;;;;;;;5013701;28;20215;-59
2021/05/02 13:47:07;;;;;;;4.67;1.80;;;;;;;;;;5013082;28;20218;-58
2021/05/02 13:49:34;;;;;;;3.60;2.30;;;;;;;;;;5013055;28;20215;-60
2021/05/02 13:52:02;;;;;;;6.47;2.20;;;;;;;;;;5012613;28;20231;-62
2021/05/02 13:54:28;;;;;;;3.20;2.07;;;;;;;;;;5012625;28;20227;-59
2021/05/02 13:56:55;;;;;;;4.10;2.23;;;;;;;;;;5012887;28;20636;-59
2021/05/02 13:59:22;;;;;;;5.67;2.30;;;;;;;;;;5012590;28;20684;-60
2021/05/02 14:01:49;;;;;;;3.90;2.30;;;;;;;;;;5012673;28;20258;-58
2021/05/02 14:04:15;;;;;;;2.93;2.10;;;;;;;;;;5012596;28;20229;-59
2021/05/02 14:06:42;;;;;;;5.00;2.83;;;;;;;;;;5012300;28;20220;-61
2021/05/02 14:09:09;;;;;;;5.80;2.10;;;;;;;;;;5012825;28;20207;-58
2021/05/02 14:11:36;;;;;;;4.80;2.30;;;;;;;;;;5012366;28;20219;-58
2021/05/02 14:14:03;;;;;;;2.03;1.80;;;;;;;;;;5011720;28;20227;-59
2021/05/02 14:16:29;;;;;;;3.67;2.10;;;;;;;;;;5012479;28;20209;-59
2021/05/02 14:18:56;;;;;;;3.60;1.83;;;;;;;;;;5012271;28;20211;-59
2021/05/02 14:21:22;;;;;;;3.87;1.83;;;;;;;;;;5011877;28;20588;-58
2021/05/02 14:23:49;;;;;;;4.83;1.90;;;;;;;;;;5012278;28;20237;-58
2021/05/02 14:26:16;;;;;;;4.53;2.27;;;;;;;;;;5012190;28;20742;-59
2021/05/02 14:28:42;;;;;;;4.47;2.60;;;;;;;;;;5012366;28;20204;-56
2021/05/02 14:31:09;;;;;;;4.43;1.93;;;;;;;;;;5012012;28;20207;-56
2021/05/02 14:33:35;;;;;;;1.87;1.67;;;;;;;;;;5011966;28;20583;-59
2021/05/02 14:36:02;;;;;;;2.77;1.70;;;;;;;;;;5012196;28;20203;-57